createdAt,value
2024-02-10T00:00:56.327Z,21.75
2024-02-10T00:03:24.575Z,24.50
2024-02-10T00:05:52.309Z,20.92
2024-02-10T00:08:21.965Z,25.60
2024-02-10T00:10:50.021Z,18.90
2024-02-10T00:13:17.979Z,22.98
2024-02-10T00:15:47.171Z,20.48
2024-02-10T00:18:15.210Z,24.92
2024-02-10T00:20:44.005Z,26.20
2024-02-10T00:23:11.971Z,21.80
2024-02-10T00:25:40.478Z,21.42
2024-02-10T00:28:10.668Z,17.27
2024-02-10T00:30:39.582Z,20.85
2024-02-10T00:33:10.501Z,16.08
2024-02-10T00:35:38.457Z,18.85
2024-02-10T00:38:06.608Z,17.33
2024-02-10T00:40:34.575Z,20.27
2024-02-10T00:43:02.415Z,19.05
2024-02-10T00:45:30.193Z,20.02
2024-02-10T00:47:59.298Z,22.30
2024-02-10T00:50:27.138Z,16.50
2024-02-10T00:52:55.030Z,17.60
2024-02-10T00:55:32.727Z,19.90
2024-02-10T00:58:06.123Z,12.82
2024-02-10T01:00:33.950Z,22.45
2024-02-10T01:03:02.307Z,12.68
2024-02-10T01:05:31.771Z,13.65
2024-02-10T01:08:01.909Z,15.95
2024-02-10T01:10:32.721Z,19.50
2024-02-10T01:13:05.218Z,15.68
2024-02-10T01:15:34.703Z,13.75
2024-02-10T01:18:03.215Z,21.40
2024-02-10T01:20:30.959Z,20.05
2024-02-10T01:22:59.418Z,14.57
2024-02-10T01:25:27.466Z,19.42
2024-02-10T01:27:55.737Z,16.15
2024-02-10T01:30:23.502Z,19.33
2024-02-10T01:32:51.214Z,18.80
2024-02-10T01:35:19.821Z,16.70
2024-02-10T01:37:47.745Z,17.88
2024-02-10T01:40:18.170Z,15.93
2024-02-10T01:42:46.692Z,13.40
2024-02-10T01:45:15.523Z,14.82
2024-02-10T01:50:14.276Z,18.98
2024-02-10T01:52:42.329Z,14.63
2024-02-10T01:55:11.985Z,12.73
2024-02-10T01:57:40.944Z,16.45
2024-02-10T02:00:15.538Z,15.15
2024-02-10T02:02:43.659Z,18.25
2024-02-10T02:05:12.133Z,14.23
2024-02-10T02:07:40.404Z,10.85
2024-02-10T02:10:10.706Z,12.63
2024-02-10T02:12:49.865Z,16.08
2024-02-10T02:15:19.441Z,10.40
2024-02-10T02:17:51.203Z,14.68
2024-02-10T02:20:19.749Z,6.47
2024-02-10T02:22:52.270Z,13.82
2024-02-10T02:25:20.585Z,15.25
2024-02-10T02:27:48.528Z,6.43
2024-02-10T02:30:17.669Z,10.90
2024-02-10T02:32:45.557Z,9.10
2024-02-10T02:35:13.694Z,11.02
2024-02-10T02:37:42.991Z,9.70
2024-02-10T02:40:16.802Z,8.23
2024-02-10T02:42:45.318Z,5.57
2024-02-10T02:45:13.314Z,4.60
2024-02-10T02:47:41.346Z,6.63
2024-02-10T02:50:10.927Z,8.48
2024-02-10T02:52:40.108Z,4.65
2024-02-10T02:55:13.213Z,5.65
2024-02-10T02:57:41.496Z,5.00
2024-02-10T03:00:10.062Z,9.10
2024-02-10T03:02:43.423Z,7.88
2024-02-10T03:05:12.524Z,6.55
2024-02-10T03:07:47.662Z,5.60
2024-02-10T03:10:17.747Z,3.00
2024-02-10T03:12:48.201Z,5.68
2024-02-10T03:15:16.344Z,11.07
2024-02-10T03:17:48.648Z,2.20
2024-02-10T03:20:19.700Z,5.07
2024-02-10T03:22:51.523Z,5.88
2024-02-10T03:25:20.590Z,4.38
2024-02-10T03:27:48.565Z,6.45
2024-02-10T03:30:17.123Z,5.80
2024-02-10T03:32:46.205Z,3.50
2024-02-10T03:35:14.235Z,3.63
2024-02-10T03:37:42.353Z,4.80
2024-02-10T03:40:16.229Z,4.55
2024-02-10T03:42:44.388Z,3.20
2024-02-10T03:45:12.394Z,8.43
2024-02-10T03:47:45.153Z,7.82
2024-02-10T03:50:15.519Z,7.03
2024-02-10T03:52:44.338Z,5.75
2024-02-10T03:55:12.393Z,3.55
2024-02-10T03:57:40.595Z,2.55
2024-02-10T04:00:12.548Z,5.93
2024-02-10T04:02:40.378Z,4.68
2024-02-10T04:05:09.188Z,4.90
2024-02-10T04:07:39.971Z,5.95
2024-02-10T04:10:14.132Z,4.22
2024-02-10T04:12:42.165Z,4.75
2024-02-10T04:15:13.363Z,7.15
2024-02-10T04:17:41.423Z,4.45
2024-02-10T04:20:11.568Z,5.18
2024-02-10T04:22:39.692Z,6.70
2024-02-10T04:25:11.671Z,5.93
2024-02-10T04:27:40.120Z,3.53
2024-02-10T04:30:09.074Z,4.20
2024-02-10T04:32:41.082Z,3.22
2024-02-10T04:35:09.074Z,4.63
2024-02-10T04:37:37.516Z,3.42
2024-02-10T04:40:06.052Z,3.80
2024-02-10T04:42:34.093Z,1.38
2024-02-10T04:45:01.978Z,3.83
2024-02-10T04:47:30.096Z,5.22
2024-02-10T04:49:58.117Z,6.10
2024-02-10T04:52:26.186Z,3.03
2024-02-10T04:54:55.113Z,3.90
2024-02-10T04:57:30.032Z,3.80
2024-02-10T04:59:59.988Z,7.72
2024-02-10T05:02:28.497Z,4.43
2024-02-10T05:04:56.497Z,7.00
2024-02-10T05:07:24.376Z,7.13
2024-02-10T05:09:52.230Z,5.40
2024-02-10T05:12:20.072Z,6.60
2024-02-10T05:14:48.052Z,4.93
2024-02-10T05:17:15.957Z,5.32
2024-02-10T05:19:44.082Z,5.32
2024-02-10T05:22:15.682Z,7.60
2024-02-10T05:24:44.161Z,3.85
2024-02-10T05:27:12.085Z,4.40
2024-02-10T05:29:40.144Z,3.75
2024-02-10T05:32:08.147Z,5.65
2024-02-10T05:34:36.089Z,6.00
2024-02-10T05:37:05.462Z,6.88
2024-02-10T05:39:33.142Z,6.38
2024-02-10T05:42:02.317Z,4.00
2024-02-10T05:51:55.080Z,2.78
2024-02-10T05:54:23.047Z,5.20
2024-02-10T05:56:51.002Z,5.10
2024-02-10T05:59:21.024Z,3.67
2024-02-10T06:01:49.169Z,6.50
2024-02-10T06:04:17.186Z,3.83
2024-02-10T06:06:49.254Z,5.10
2024-02-10T06:09:17.146Z,4.82
2024-02-10T06:11:45.084Z,2.58
2024-02-10T06:14:12.722Z,4.47
2024-02-10T06:16:42.328Z,5.07
2024-02-10T06:19:10.231Z,5.93
2024-02-10T06:21:38.135Z,5.63
2024-02-10T06:24:05.964Z,4.28
2024-02-10T06:26:38.681Z,4.72
2024-02-10T06:29:07.068Z,3.40
2024-02-10T06:31:35.049Z,5.10
2024-02-10T06:34:03.282Z,5.93
2024-02-10T06:36:32.150Z,2.95
2024-02-10T06:38:59.887Z,4.28
2024-02-10T06:41:32.165Z,4.85
2024-02-10T06:43:59.934Z,4.82
2024-02-10T06:46:27.690Z,4.85
2024-02-10T06:48:55.364Z,4.82
2024-02-10T06:51:23.328Z,3.83
2024-02-10T06:53:51.044Z,5.10
2024-02-10T06:56:19.738Z,5.90
2024-02-10T06:58:50.782Z,1.90
2024-02-10T07:01:19.262Z,7.05
2024-02-10T07:03:47.571Z,6.20
2024-02-10T07:06:19.661Z,2.65
2024-02-10T07:08:47.766Z,1.92
2024-02-10T07:11:15.474Z,5.53
2024-02-10T07:13:43.352Z,5.63
2024-02-10T07:16:11.086Z,9.85
2024-02-10T07:18:40.562Z,4.40
2024-02-10T07:21:08.172Z,4.18
2024-02-10T07:23:36.313Z,2.90
2024-02-10T07:26:06.878Z,1.65
2024-02-10T07:28:36.281Z,3.08
2024-02-10T07:31:04.507Z,5.22
2024-02-10T07:33:32.455Z,3.75
2024-02-10T07:36:02.153Z,2.65
2024-02-10T07:38:29.874Z,3.75
2024-02-10T07:40:57.651Z,3.15
2024-02-10T07:43:25.546Z,3.75
2024-02-10T07:45:54.458Z,4.32
2024-02-10T07:48:24.197Z,2.33
2024-02-10T07:50:54.212Z,4.57
2024-02-10T07:53:22.072Z,4.03
2024-02-10T07:55:52.554Z,3.90
2024-02-10T07:58:20.512Z,6.72
2024-02-10T08:00:51.229Z,4.97
2024-02-10T08:03:21.045Z,3.30
2024-02-10T08:05:53.748Z,4.13
2024-02-10T08:08:25.991Z,4.03
2024-02-10T08:10:54.404Z,3.80
2024-02-10T08:13:26.413Z,6.68
2024-02-10T08:15:56.782Z,2.80
2024-02-10T08:18:25.589Z,3.95
2024-02-10T08:20:54.888Z,3.45
2024-02-10T08:23:22.579Z,4.05
2024-02-10T08:25:52.476Z,4.38
2024-02-10T08:28:20.586Z,4.80
2024-02-10T08:30:48.489Z,5.30
2024-02-10T08:33:17.671Z,4.15
2024-02-10T08:35:47.956Z,4.30
2024-02-10T08:38:18.500Z,3.63
2024-02-10T08:40:46.223Z,3.38
2024-02-10T08:43:15.328Z,4.10
2024-02-10T08:45:43.121Z,5.47
2024-02-10T08:48:12.683Z,1.90
2024-02-10T08:50:42.674Z,2.58
2024-02-10T08:53:10.804Z,4.93
2024-02-10T08:55:38.764Z,2.90
2024-02-10T08:58:07.165Z,2.50
2024-02-10T09:00:36.251Z,5.40
2024-02-10T09:03:08.026Z,6.28
2024-02-10T09:05:35.728Z,4.40
2024-02-10T09:08:03.501Z,3.42
2024-02-10T09:10:31.287Z,2.75
2024-02-10T09:13:03.333Z,6.38
2024-02-10T09:15:32.087Z,4.45
2024-02-10T09:18:00.075Z,7.10
2024-02-10T09:20:29.079Z,7.63
2024-02-10T09:22:56.923Z,4.95
2024-02-10T09:25:28.541Z,5.07
2024-02-10T09:28:00.771Z,5.97
2024-02-10T09:30:28.429Z,6.78
2024-02-10T09:32:56.191Z,4.28
2024-02-10T09:35:31.060Z,4.90
2024-02-10T09:38:02.128Z,4.55
2024-02-10T09:40:30.318Z,4.65
2024-02-10T09:43:03.317Z,7.53
2024-02-10T09:45:35.862Z,2.70
2024-02-10T09:48:07.653Z,2.35
2024-02-10T09:50:38.409Z,4.85
2024-02-10T09:53:06.852Z,3.80
2024-02-10T09:55:34.573Z,5.90
2024-02-10T09:58:06.004Z,7.22
2024-02-10T10:00:38.481Z,4.75
2024-02-10T10:03:06.626Z,4.93
2024-02-10T10:05:44.541Z,5.22
2024-02-10T10:08:13.512Z,3.35
2024-02-10T10:10:42.419Z,1.15
2024-02-10T10:15:41.331Z,3.72
2024-02-10T10:18:17.127Z,3.40
2024-02-10T10:20:49.255Z,3.13
2024-02-10T10:23:17.992Z,3.13
2024-02-10T10:25:49.554Z,2.17
2024-02-10T10:28:20.489Z,2.80
2024-02-10T10:30:49.242Z,2.15
2024-02-10T10:33:23.042Z,3.83
2024-02-10T10:35:51.968Z,2.28
2024-02-10T10:38:24.171Z,4.32
2024-02-10T10:40:55.955Z,3.65
2024-02-10T10:43:25.637Z,4.28
2024-02-10T10:45:54.010Z,1.35
2024-02-10T10:48:22.109Z,2.88
2024-02-10T10:50:57.207Z,3.20
2024-02-10T10:53:29.799Z,3.17
2024-02-10T10:56:02.204Z,2.63
2024-02-10T10:58:41.273Z,2.17
2024-02-10T11:01:16.469Z,4.43
2024-02-10T11:03:46.080Z,3.72
2024-02-10T11:06:14.415Z,5.47
2024-02-10T11:08:42.334Z,3.15
2024-02-10T11:11:14.094Z,2.47
2024-02-10T11:13:41.986Z,1.40
2024-02-10T11:16:14.775Z,1.60
2024-02-10T11:19:03.064Z,2.05
2024-02-10T11:21:32.991Z,3.22
2024-02-10T11:24:13.008Z,2.65
2024-02-10T11:26:41.515Z,2.67
2024-02-10T11:29:11.219Z,0.95
2024-02-10T11:31:42.441Z,1.42
2024-02-10T11:34:21.682Z,1.77
2024-02-10T11:36:55.803Z,1.75
2024-02-10T11:39:26.321Z,2.00
2024-02-10T11:41:59.768Z,1.00
2024-02-10T11:44:31.539Z,1.17
2024-02-10T11:47:01.861Z,2.67
2024-02-10T11:49:30.149Z,1.85
2024-02-10T11:51:59.741Z,1.55
2024-02-10T11:54:30.745Z,1.60
2024-02-10T11:57:02.766Z,0.95
2024-02-10T11:59:34.286Z,2.67
2024-02-10T12:02:03.115Z,1.45
2024-02-10T12:04:34.630Z,1.90
2024-02-10T12:07:03.245Z,2.10
2024-02-10T12:09:31.369Z,3.03
2024-02-10T12:12:02.388Z,3.25
2024-02-10T12:14:31.677Z,4.13
2024-02-10T12:17:07.782Z,1.48
2024-02-10T12:19:43.324Z,1.80
2024-02-10T12:22:12.168Z,1.55
2024-02-10T12:27:08.586Z,2.10
2024-02-10T12:29:42.430Z,1.30
2024-02-10T12:32:11.737Z,1.13
2024-02-10T12:34:39.710Z,1.60
2024-02-10T12:37:08.112Z,1.33
2024-02-10T12:39:35.828Z,2.42
2024-02-10T12:42:03.659Z,1.52
2024-02-10T12:44:33.524Z,2.17
2024-02-10T12:47:03.404Z,1.00
2024-02-10T12:49:31.394Z,1.13
2024-02-10T12:51:59.301Z,1.40
2024-02-10T12:54:29.581Z,1.38
2024-02-10T12:56:57.928Z,8.45
2024-02-10T12:59:25.823Z,1.45
2024-02-10T13:01:57.658Z,0.85
2024-02-10T13:04:28.068Z,2.67
2024-02-10T13:06:59.095Z,0.70
2024-02-10T13:09:26.869Z,2.72
2024-02-10T13:11:54.926Z,1.13
2024-02-10T13:14:22.752Z,0.73
2024-02-10T13:16:50.735Z,2.15
2024-02-10T13:19:18.650Z,1.25
2024-02-10T13:21:47.084Z,0.63
2024-02-10T13:24:16.193Z,1.67
2024-02-10T13:26:44.094Z,2.40
2024-02-10T13:29:12.610Z,3.25
2024-02-10T13:31:40.468Z,2.78
2024-02-10T13:34:15.776Z,0.80
2024-02-10T13:36:53.168Z,0.35
2024-02-10T13:39:39.217Z,1.10
2024-02-10T13:42:25.864Z,0.82
2024-02-10T13:45:11.918Z,0.73
2024-02-10T13:47:58.167Z,2.50
2024-02-10T13:50:44.445Z,1.70
2024-02-10T13:53:30.715Z,0.77
2024-02-10T13:56:16.692Z,2.67
2024-02-10T13:58:44.303Z,1.30
2024-02-10T14:01:14.504Z,2.15
2024-02-10T14:04:02.288Z,1.23
2024-02-10T14:06:36.262Z,2.70
2024-02-10T14:09:08.023Z,3.65
2024-02-10T14:11:39.804Z,3.65
2024-02-10T14:14:08.223Z,2.50
2024-02-10T14:16:39.351Z,3.42
2024-02-10T14:19:15.688Z,4.57
2024-02-10T14:21:46.084Z,2.85
2024-02-10T14:24:17.836Z,1.90
2024-02-10T14:27:03.008Z,1.95
2024-02-10T14:29:35.431Z,3.15
2024-02-10T14:32:14.620Z,4.72
2024-02-10T14:35:00.604Z,2.55
2024-02-10T14:37:30.830Z,3.47
2024-02-10T14:40:01.741Z,1.00
2024-02-10T14:42:29.925Z,0.50
2024-02-10T14:44:57.670Z,0.80
2024-02-10T14:47:26.748Z,4.25
2024-02-10T14:49:54.878Z,2.35
2024-02-10T14:52:24.102Z,0.15
2024-02-10T14:54:52.284Z,1.58
2024-02-10T14:57:23.348Z,1.33
2024-02-10T14:59:52.456Z,1.55
2024-02-10T15:02:24.221Z,2.05
2024-02-10T15:04:52.777Z,1.45
2024-02-10T15:07:23.851Z,1.05
2024-02-10T15:09:52.647Z,1.63
2024-02-10T15:12:20.330Z,0.47
2024-02-10T15:14:48.061Z,0.65
2024-02-10T15:17:18.473Z,0.50
2024-02-10T15:19:46.928Z,2.47
2024-02-10T15:22:16.694Z,1.45
2024-02-10T15:24:45.296Z,0.68
2024-02-10T15:27:14.424Z,0.50
2024-02-10T15:29:42.167Z,1.33
2024-02-10T15:32:11.471Z,2.90
2024-02-10T15:34:48.094Z,1.05
2024-02-10T15:37:25.750Z,0.50
2024-02-10T15:39:53.725Z,0.68
2024-02-10T15:42:21.657Z,1.77
2024-02-10T15:44:49.565Z,0.52
2024-02-10T15:47:19.797Z,0.55
2024-02-10T15:49:48.310Z,2.10
2024-02-10T15:52:17.237Z,1.33
2024-02-10T15:57:12.362Z,0.85
2024-02-10T15:59:40.176Z,1.58
2024-02-10T16:02:11.190Z,2.55
2024-02-10T16:04:43.811Z,6.47
2024-02-10T16:07:11.935Z,2.35
2024-02-10T16:09:39.590Z,1.30
2024-02-10T16:12:10.240Z,2.50
2024-02-10T16:14:38.449Z,0.63
2024-02-10T16:17:06.183Z,2.05
2024-02-10T16:19:41.242Z,1.30
2024-02-10T16:22:09.025Z,1.27
2024-02-10T16:24:36.792Z,1.23
2024-02-10T16:27:04.814Z,1.10
2024-02-10T16:29:32.432Z,0.40
2024-02-10T16:32:00.161Z,1.98
2024-02-10T16:34:31.362Z,2.75
2024-02-10T16:37:00.279Z,1.52
2024-02-10T16:41:57.971Z,1.48
2024-02-10T16:44:26.408Z,1.27
2024-02-10T16:47:01.157Z,1.23
2024-02-10T16:49:34.324Z,1.70
2024-02-10T16:52:05.079Z,1.35
2024-02-10T16:54:32.839Z,0.32
2024-02-10T16:57:02.060Z,0.77
2024-02-10T16:59:29.884Z,2.17
2024-02-10T17:01:57.970Z,0.73
2024-02-10T17:04:25.891Z,1.27
2024-02-10T17:06:55.857Z,1.30
2024-02-10T17:09:24.385Z,0.40
2024-02-10T17:11:52.210Z,1.55
2024-02-10T17:14:20.014Z,0.57
2024-02-10T17:16:47.847Z,1.02
2024-02-10T17:19:20.223Z,1.10
2024-02-10T17:21:53.257Z,2.53
2024-02-10T17:24:22.034Z,1.83
2024-02-10T17:26:49.855Z,0.20
2024-02-10T17:29:17.985Z,1.40
2024-02-10T17:31:48.121Z,1.63
2024-02-10T17:34:16.033Z,1.88
2024-02-10T17:36:44.145Z,1.38
2024-02-10T17:39:12.200Z,0.93
2024-02-10T17:41:45.342Z,1.90
2024-02-10T17:44:14.943Z,1.30
2024-02-10T17:46:49.955Z,5.40
2024-02-10T17:49:19.348Z,1.90
2024-02-10T17:54:21.072Z,1.38
2024-02-10T17:56:50.066Z,1.60
2024-02-10T17:59:20.286Z,0.88
2024-02-10T18:01:48.664Z,0.93
2024-02-10T18:04:16.757Z,0.80
2024-02-10T18:06:45.690Z,1.67
2024-02-10T18:09:14.350Z,3.22
2024-02-10T18:11:45.902Z,0.82
2024-02-10T18:14:17.991Z,0.90
2024-02-10T18:16:47.459Z,1.33
2024-02-10T18:19:16.076Z,1.35
2024-02-10T18:21:45.417Z,2.83
2024-02-10T18:24:13.815Z,1.52
2024-02-10T18:26:41.614Z,0.50
2024-02-10T18:29:09.790Z,1.20
2024-02-10T18:31:38.249Z,2.30
2024-02-10T18:34:07.771Z,0.50
2024-02-10T18:36:36.024Z,1.52
2024-02-10T18:39:05.047Z,2.13
2024-02-10T18:44:04.903Z,0.70
2024-02-10T18:46:34.032Z,0.45
2024-02-10T18:49:02.645Z,1.25
2024-02-10T18:51:31.476Z,1.95
2024-02-10T18:54:01.153Z,1.02
2024-02-10T18:56:29.323Z,2.03
2024-02-10T18:58:57.223Z,1.73
2024-02-10T19:01:27.577Z,2.47
2024-02-10T19:03:58.199Z,2.10
2024-02-10T19:06:26.897Z,0.65
2024-02-10T19:08:56.497Z,0.63
2024-02-10T19:11:24.867Z,2.28
2024-02-10T19:13:55.916Z,1.92
2024-02-10T19:16:24.289Z,1.25
2024-02-10T19:18:52.405Z,0.30
2024-02-10T19:21:21.056Z,1.50
2024-02-10T19:23:50.268Z,1.80
2024-02-10T19:28:50.184Z,2.25
2024-02-10T19:31:20.190Z,3.40
2024-02-10T19:33:51.020Z,2.63
2024-02-10T19:36:20.608Z,1.67
2024-02-10T19:38:48.608Z,3.20
2024-02-10T19:41:18.574Z,1.77
2024-02-10T19:43:46.759Z,1.67
2024-02-10T19:46:16.785Z,3.60
2024-02-10T19:48:49.028Z,1.90
2024-02-10T19:51:18.514Z,2.30
2024-02-10T19:53:48.506Z,1.88
2024-02-10T19:56:18.680Z,2.47
2024-02-10T19:58:50.767Z,1.42
2024-02-10T20:01:21.767Z,2.15
2024-02-10T20:03:53.106Z,0.93
2024-02-10T20:06:23.805Z,0.82
2024-02-10T20:08:54.055Z,0.90
2024-02-10T20:11:23.959Z,1.67
2024-02-10T20:13:52.721Z,0.95
2024-02-10T20:16:20.740Z,1.35
2024-02-10T20:18:48.911Z,1.27
2024-02-10T20:21:18.006Z,1.35
2024-02-10T20:23:46.151Z,0.38
2024-02-10T20:26:14.700Z,1.02
2024-02-10T20:28:44.018Z,1.00
2024-02-10T20:31:30.453Z,1.50
2024-02-10T20:34:00.502Z,1.50
2024-02-10T20:36:28.502Z,2.53
2024-02-10T20:38:58.224Z,1.50
2024-02-10T20:41:26.028Z,1.30
2024-02-10T20:43:53.838Z,1.75
2024-02-10T20:46:23.017Z,1.80
2024-02-10T20:48:50.910Z,2.58
2024-02-10T20:51:18.820Z,2.55
2024-02-10T20:53:47.476Z,2.50
2024-02-10T20:56:17.291Z,1.35
2024-02-10T20:58:45.534Z,2.55
2024-02-10T21:01:13.666Z,1.60
2024-02-10T21:03:41.592Z,1.27
2024-02-10T21:06:10.044Z,2.28
2024-02-10T21:08:40.326Z,2.15
2024-02-10T21:11:08.499Z,1.33
2024-02-10T21:13:36.554Z,1.55
2024-02-10T21:16:07.925Z,2.47
2024-02-10T21:18:36.054Z,1.77
2024-02-10T21:21:05.032Z,1.77
2024-02-10T21:26:04.243Z,3.00
2024-02-10T21:28:35.358Z,1.60
2024-02-10T21:31:06.596Z,1.80
2024-02-10T21:33:34.883Z,3.75
2024-02-10T21:36:05.680Z,1.38
2024-02-10T21:38:33.474Z,1.73
2024-02-10T21:41:01.383Z,6.38
2024-02-10T21:43:29.387Z,4.50
2024-02-10T21:45:58.572Z,2.83
2024-02-10T21:48:26.498Z,3.20
2024-02-10T21:50:55.292Z,4.63
2024-02-10T21:53:23.095Z,3.95
2024-02-10T21:55:52.042Z,3.22
2024-02-10T21:58:20.229Z,4.07
2024-02-10T22:00:49.537Z,2.75
2024-02-10T22:03:17.754Z,4.10
2024-02-10T22:05:45.699Z,3.05
2024-02-10T22:08:13.514Z,3.03
2024-02-10T22:10:41.362Z,2.30
2024-02-10T22:13:11.350Z,2.20
2024-02-10T22:15:39.190Z,1.65
2024-02-10T22:18:15.060Z,3.65
2024-02-10T22:20:45.586Z,2.15
2024-02-10T22:23:14.076Z,1.98
2024-02-10T22:25:46.268Z,0.90
2024-02-10T22:28:14.314Z,2.47
2024-02-10T22:30:42.261Z,1.55
2024-02-10T22:33:10.544Z,3.85
2024-02-10T22:35:39.106Z,6.05
2024-02-10T22:38:08.766Z,3.17
2024-02-10T22:40:41.926Z,2.35
2024-02-10T22:43:11.352Z,1.08
2024-02-10T22:45:40.313Z,1.30
2024-02-10T22:48:12.264Z,1.85
2024-02-10T22:50:43.900Z,2.15
2024-02-10T22:53:14.982Z,2.42
2024-02-10T22:55:47.004Z,2.15
2024-02-10T22:58:18.376Z,2.60
2024-02-10T23:00:54.713Z,1.27
2024-02-10T23:03:22.781Z,1.75
2024-02-10T23:05:52.153Z,3.50
2024-02-10T23:08:21.823Z,2.55
2024-02-10T23:10:51.925Z,1.48
2024-02-10T23:13:23.039Z,1.50
2024-02-10T23:15:53.117Z,3.92
2024-02-10T23:18:25.874Z,2.55
2024-02-10T23:20:54.562Z,2.00
2024-02-10T23:23:29.456Z,1.80
2024-02-10T23:28:26.815Z,3.97
2024-02-10T23:31:01.541Z,4.65
2024-02-10T23:33:33.737Z,2.67
2024-02-10T23:36:20.602Z,3.08
2024-02-10T23:38:53.963Z,1.20
2024-02-10T23:41:22.055Z,3.42
2024-02-10T23:43:50.058Z,1.80
2024-02-10T23:46:18.580Z,2.75
2024-02-10T23:48:54.137Z,2.70
2024-02-10T23:51:25.737Z,3.67
2024-02-10T23:53:54.335Z,4.22
2024-02-10T23:56:22.252Z,1.48
2024-02-10T23:58:50.556Z,2.20
